sensor_id;sensor_type;location;lat;lon;timestamp;P1;durP1;ratioP1;P2;durP2;ratioP2
23304;SDS011;11821;51.456;8.844;2024-01-30T00:00:42;13.65;;;8.65;;
23304;SDS011;11821;51.456;8.844;2024-01-30T00:03:08;13.30;;;9.15;;
23304;SDS011;11821;51.456;8.844;2024-01-30T00:05:35;12.13;;;8.35;;
23304;SDS011;11821;51.456;8.844;2024-01-30T00:08:01;15.95;;;9.10;;
23304;SDS011;11821;51.456;8.844;2024-01-30T00:10:28;11.77;;;8.07;;
23304;SDS011;11821;51.456;8.844;2024-01-30T00:12:55;14.40;;;8.85;;
23304;SDS011;11821;51.456;8.844;2024-01-30T00:15:21;10.82;;;7.40;;
23304;SDS011;11821;51.456;8.844;2024-01-30T00:17:48;11.73;;;7.63;;
23304;SDS011;11821;51.456;8.844;2024-01-30T00:20:15;12.82;;;8.23;;
23304;SDS011;11821;51.456;8.844;2024-01-30T00:22:41;12.73;;;7.80;;
23304;SDS011;11821;51.456;8.844;2024-01-30T00:25:08;23.10;;;9.85;;
23304;SDS011;11821;51.456;8.844;2024-01-30T00:27:35;11.38;;;6.90;;
23304;SDS011;11821;51.456;8.844;2024-01-30T00:30:01;14.52;;;7.03;;
23304;SDS011;11821;51.456;8.844;2024-01-30T00:32:28;19.75;;;9.85;;
23304;SDS011;11821;51.456;8.844;2024-01-30T00:34:54;13.88;;;7.82;;
23304;SDS011;11821;51.456;8.844;2024-01-30T00:37:21;13.13;;;8.20;;
23304;SDS011;11821;51.456;8.844;2024-01-30T00:39:48;16.95;;;8.27;;
23304;SDS011;11821;51.456;8.844;2024-01-30T00:42:15;15.55;;;8.13;;
23304;SDS011;11821;51.456;8.844;2024-01-30T00:44:42;14.45;;;8.43;;
23304;SDS011;11821;51.456;8.844;2024-01-30T00:47:08;14.27;;;8.18;;
23304;SDS011;11821;51.456;8.844;2024-01-30T00:49:35;18.95;;;9.73;;
23304;SDS011;11821;51.456;8.844;2024-01-30T00:52:02;15.43;;;8.82;;
23304;SDS011;11821;51.456;8.844;2024-01-30T00:54:28;13.63;;;8.30;;
23304;SDS011;11821;51.456;8.844;2024-01-30T00:56:55;17.92;;;10.13;;
23304;SDS011;11821;51.456;8.844;2024-01-30T00:59:22;13.20;;;8.68;;
23304;SDS011;11821;51.456;8.844;2024-01-30T01:01:49;21.90;;;10.85;;
23304;SDS011;11821;51.456;8.844;2024-01-30T01:04:15;17.67;;;9.02;;
23304;SDS011;11821;51.456;8.844;2024-01-30T01:06:43;17.05;;;8.85;;
23304;SDS011;11821;51.456;8.844;2024-01-30T01:09:12;16.83;;;8.85;;
23304;SDS011;11821;51.456;8.844;2024-01-30T01:11:39;16.38;;;9.13;;
23304;SDS011;11821;51.456;8.844;2024-01-30T01:14:05;19.92;;;8.57;;
23304;SDS011;11821;51.456;8.844;2024-01-30T01:16:32;14.80;;;8.88;;
23304;SDS011;11821;51.456;8.844;2024-01-30T01:18:59;19.40;;;10.43;;
23304;SDS011;11821;51.456;8.844;2024-01-30T01:21:26;20.60;;;10.82;;
23304;SDS011;11821;51.456;8.844;2024-01-30T01:23:52;15.05;;;9.23;;
23304;SDS011;11821;51.456;8.844;2024-01-30T01:26:19;15.68;;;9.48;;
23304;SDS011;11821;51.456;8.844;2024-01-30T01:28:46;17.50;;;9.82;;
23304;SDS011;11821;51.456;8.844;2024-01-30T01:31:13;12.68;;;8.27;;
23304;SDS011;11821;51.456;8.844;2024-01-30T01:33:40;17.63;;;9.02;;
23304;SDS011;11821;51.456;8.844;2024-01-30T01:36:06;14.88;;;8.25;;
23304;SDS011;11821;51.456;8.844;2024-01-30T01:38:33;17.55;;;10.25;;
23304;SDS011;11821;51.456;8.844;2024-01-30T01:40:59;11.93;;;7.40;;
23304;SDS011;11821;51.456;8.844;2024-01-30T01:43:26;16.15;;;9.15;;
23304;SDS011;11821;51.456;8.844;2024-01-30T01:45:53;16.38;;;9.07;;
23304;SDS011;11821;51.456;8.844;2024-01-30T01:48:19;16.83;;;10.05;;
23304;SDS011;11821;51.456;8.844;2024-01-30T01:50:46;14.48;;;8.50;;
23304;SDS011;11821;51.456;8.844;2024-01-30T01:53:12;16.85;;;8.85;;
23304;SDS011;11821;51.456;8.844;2024-01-30T01:55:39;33.05;;;11.75;;
23304;SDS011;11821;51.456;8.844;2024-01-30T01:58:06;16.50;;;9.15;;
23304;SDS011;11821;51.456;8.844;2024-01-30T02:00:34;17.90;;;8.15;;
23304;SDS011;11821;51.456;8.844;2024-01-30T02:03:05;14.18;;;9.23;;
23304;SDS011;11821;51.456;8.844;2024-01-30T02:05:32;21.73;;;10.02;;
23304;SDS011;11821;51.456;8.844;2024-01-30T02:07:58;15.05;;;8.50;;
23304;SDS011;11821;51.456;8.844;2024-01-30T02:10:25;16.40;;;9.13;;
23304;SDS011;11821;51.456;8.844;2024-01-30T02:12:51;17.05;;;9.00;;
23304;SDS011;11821;51.456;8.844;2024-01-30T02:15:18;18.50;;;10.15;;
23304;SDS011;11821;51.456;8.844;2024-01-30T02:17:45;15.85;;;8.85;;
23304;SDS011;11821;51.456;8.844;2024-01-30T02:20:11;16.27;;;10.55;;
23304;SDS011;11821;51.456;8.844;2024-01-30T02:22:39;18.42;;;10.25;;
23304;SDS011;11821;51.456;8.844;2024-01-30T02:25:07;24.80;;;12.25;;
23304;SDS011;11821;51.456;8.844;2024-01-30T02:27:33;18.13;;;10.07;;
23304;SDS011;11821;51.456;8.844;2024-01-30T02:30:00;19.30;;;10.40;;
23304;SDS011;11821;51.456;8.844;2024-01-30T02:32:26;16.63;;;10.15;;
23304;SDS011;11821;51.456;8.844;2024-01-30T02:34:53;18.98;;;10.15;;
23304;SDS011;11821;51.456;8.844;2024-01-30T02:37:19;18.42;;;10.45;;
23304;SDS011;11821;51.456;8.844;2024-01-30T02:39:46;16.92;;;10.30;;
23304;SDS011;11821;51.456;8.844;2024-01-30T02:42:12;13.73;;;8.40;;
23304;SDS011;11821;51.456;8.844;2024-01-30T02:44:39;20.10;;;10.23;;
23304;SDS011;11821;51.456;8.844;2024-01-30T02:47:05;15.23;;;9.07;;
23304;SDS011;11821;51.456;8.844;2024-01-30T02:49:32;17.17;;;10.23;;
23304;SDS011;11821;51.456;8.844;2024-01-30T02:51:58;27.15;;;12.38;;
23304;SDS011;11821;51.456;8.844;2024-01-30T02:54:25;19.05;;;11.15;;
23304;SDS011;11821;51.456;8.844;2024-01-30T02:56:51;16.13;;;9.35;;
23304;SDS011;11821;51.456;8.844;2024-01-30T02:59:18;14.57;;;9.77;;
23304;SDS011;11821;51.456;8.844;2024-01-30T03:01:44;20.13;;;11.60;;
23304;SDS011;11821;51.456;8.844;2024-01-30T03:04:12;19.38;;;9.20;;
23304;SDS011;11821;51.456;8.844;2024-01-30T03:06:38;18.73;;;11.07;;
23304;SDS011;11821;51.456;8.844;2024-01-30T03:09:05;21.63;;;12.02;;
23304;SDS011;11821;51.456;8.844;2024-01-30T03:11:31;27.08;;;11.45;;
23304;SDS011;11821;51.456;8.844;2024-01-30T03:13:58;23.73;;;11.95;;
23304;SDS011;11821;51.456;8.844;2024-01-30T03:16:24;15.73;;;10.52;;
23304;SDS011;11821;51.456;8.844;2024-01-30T03:18:51;17.08;;;9.38;;
23304;SDS011;11821;51.456;8.844;2024-01-30T03:21:17;15.07;;;9.23;;
23304;SDS011;11821;51.456;8.844;2024-01-30T03:23:44;16.38;;;9.57;;
23304;SDS011;11821;51.456;8.844;2024-01-30T03:26:10;18.23;;;9.65;;
23304;SDS011;11821;51.456;8.844;2024-01-30T03:28:38;17.00;;;9.77;;
23304;SDS011;11821;51.456;8.844;2024-01-30T03:31:04;14.13;;;9.88;;
23304;SDS011;11821;51.456;8.844;2024-01-30T03:33:31;18.85;;;9.82;;
23304;SDS011;11821;51.456;8.844;2024-01-30T03:35:57;15.25;;;9.10;;
23304;SDS011;11821;51.456;8.844;2024-01-30T03:38:24;12.63;;;7.93;;
23304;SDS011;11821;51.456;8.844;2024-01-30T03:40:50;20.38;;;10.38;;
23304;SDS011;11821;51.456;8.844;2024-01-30T03:43:17;16.60;;;8.32;;
23304;SDS011;11821;51.456;8.844;2024-01-30T03:45:43;15.98;;;9.05;;
23304;SDS011;11821;51.456;8.844;2024-01-30T03:48:10;14.93;;;8.43;;
23304;SDS011;11821;51.456;8.844;2024-01-30T03:50:36;16.95;;;9.35;;
23304;SDS011;11821;51.456;8.844;2024-01-30T03:53:03;18.80;;;9.90;;
23304;SDS011;11821;51.456;8.844;2024-01-30T03:55:29;17.25;;;9.60;;
23304;SDS011;11821;51.456;8.844;2024-01-30T03:57:56;18.60;;;8.88;;
23304;SDS011;11821;51.456;8.844;2024-01-30T04:00:22;13.07;;;8.43;;
23304;SDS011;11821;51.456;8.844;2024-01-30T04:02:49;15.35;;;9.18;;
23304;SDS011;11821;51.456;8.844;2024-01-30T04:05:16;21.52;;;9.60;;
23304;SDS011;11821;51.456;8.844;2024-01-30T04:07:43;18.48;;;9.63;;
23304;SDS011;11821;51.456;8.844;2024-01-30T04:10:09;13.05;;;8.35;;
23304;SDS011;11821;51.456;8.844;2024-01-30T04:12:36;11.52;;;7.70;;
23304;SDS011;11821;51.456;8.844;2024-01-30T04:15:03;19.08;;;9.73;;
23304;SDS011;11821;51.456;8.844;2024-01-30T04:17:29;14.95;;;7.90;;
23304;SDS011;11821;51.456;8.844;2024-01-30T04:19:56;10.25;;;6.75;;
23304;SDS011;11821;51.456;8.844;2024-01-30T04:22:22;15.05;;;9.10;;
23304;SDS011;11821;51.456;8.844;2024-01-30T04:24:49;10.27;;;7.43;;
23304;SDS011;11821;51.456;8.844;2024-01-30T04:27:15;22.23;;;9.35;;
23304;SDS011;11821;51.456;8.844;2024-01-30T04:29:42;17.10;;;9.63;;
23304;SDS011;11821;51.456;8.844;2024-01-30T04:32:09;18.30;;;9.35;;
23304;SDS011;11821;51.456;8.844;2024-01-30T04:34:38;11.40;;;8.30;;
23304;SDS011;11821;51.456;8.844;2024-01-30T04:37:05;12.73;;;8.18;;
23304;SDS011;11821;51.456;8.844;2024-01-30T04:39:34;14.70;;;8.68;;
23304;SDS011;11821;51.456;8.844;2024-01-30T04:42:02;15.98;;;8.45;;
23304;SDS011;11821;51.456;8.844;2024-01-30T04:44:29;16.20;;;8.20;;
23304;SDS011;11821;51.456;8.844;2024-01-30T04:46:55;17.05;;;9.57;;
23304;SDS011;11821;51.456;8.844;2024-01-30T04:49:24;21.38;;;10.35;;
23304;SDS011;11821;51.456;8.844;2024-01-30T04:51:51;15.05;;;9.40;;
23304;SDS011;11821;51.456;8.844;2024-01-30T04:54:17;18.60;;;9.02;;
23304;SDS011;11821;51.456;8.844;2024-01-30T04:56:44;15.25;;;8.63;;
23304;SDS011;11821;51.456;8.844;2024-01-30T04:59:10;15.82;;;9.18;;
23304;SDS011;11821;51.456;8.844;2024-01-30T05:01:37;18.52;;;10.35;;
23304;SDS011;11821;51.456;8.844;2024-01-30T05:04:03;17.88;;;9.20;;
23304;SDS011;11821;51.456;8.844;2024-01-30T05:06:30;21.10;;;9.43;;
23304;SDS011;11821;51.456;8.844;2024-01-30T05:08:56;18.90;;;8.80;;
23304;SDS011;11821;51.456;8.844;2024-01-30T05:11:23;16.63;;;9.73;;
23304;SDS011;11821;51.456;8.844;2024-01-30T05:13:49;17.25;;;9.07;;
23304;SDS011;11821;51.456;8.844;2024-01-30T05:16:16;21.88;;;9.85;;
23304;SDS011;11821;51.456;8.844;2024-01-30T05:18:43;17.75;;;8.60;;
23304;SDS011;11821;51.456;8.844;2024-01-30T05:21:10;15.05;;;8.15;;
23304;SDS011;11821;51.456;8.844;2024-01-30T05:23:36;14.70;;;7.85;;
23304;SDS011;11821;51.456;8.844;2024-01-30T05:26:03;15.23;;;9.38;;
23304;SDS011;11821;51.456;8.844;2024-01-30T05:28:29;14.85;;;9.35;;
23304;SDS011;11821;51.456;8.844;2024-01-30T05:30:56;12.90;;;8.50;;
23304;SDS011;11821;51.456;8.844;2024-01-30T05:33:22;20.55;;;9.18;;
23304;SDS011;11821;51.456;8.844;2024-01-30T05:35:49;10.02;;;6.68;;
23304;SDS011;11821;51.456;8.844;2024-01-30T05:38:16;15.23;;;8.20;;
23304;SDS011;11821;51.456;8.844;2024-01-30T05:40:42;15.55;;;8.95;;
23304;SDS011;11821;51.456;8.844;2024-01-30T05:43:09;15.35;;;9.05;;
23304;SDS011;11821;51.456;8.844;2024-01-30T05:45:35;14.98;;;9.38;;
23304;SDS011;11821;51.456;8.844;2024-01-30T05:48:02;14.82;;;7.88;;
23304;SDS011;11821;51.456;8.844;2024-01-30T05:50:29;19.13;;;10.45;;
23304;SDS011;11821;51.456;8.844;2024-01-30T05:52:55;14.07;;;8.75;;
23304;SDS011;11821;51.456;8.844;2024-01-30T05:55:22;20.38;;;10.57;;
23304;SDS011;11821;51.456;8.844;2024-01-30T05:57:48;12.60;;;8.50;;
23304;SDS011;11821;51.456;8.844;2024-01-30T06:00:16;17.83;;;9.35;;
23304;SDS011;11821;51.456;8.844;2024-01-30T06:02:43;24.33;;;11.10;;
23304;SDS011;11821;51.456;8.844;2024-01-30T06:05:09;17.52;;;9.73;;
23304;SDS011;11821;51.456;8.844;2024-01-30T06:07:36;15.40;;;9.20;;
23304;SDS011;11821;51.456;8.844;2024-01-30T06:10:02;16.05;;;9.02;;
23304;SDS011;11821;51.456;8.844;2024-01-30T06:12:29;17.80;;;7.85;;
23304;SDS011;11821;51.456;8.844;2024-01-30T06:14:55;17.45;;;9.48;;
23304;SDS011;11821;51.456;8.844;2024-01-30T06:17:23;12.73;;;7.30;;
23304;SDS011;11821;51.456;8.844;2024-01-30T06:19:49;13.20;;;8.02;;
23304;SDS011;11821;51.456;8.844;2024-01-30T06:22:16;16.92;;;9.23;;
23304;SDS011;11821;51.456;8.844;2024-01-30T06:24:43;19.27;;;9.40;;
23304;SDS011;11821;51.456;8.844;2024-01-30T06:27:15;14.88;;;8.32;;
23304;SDS011;11821;51.456;8.844;2024-01-30T06:29:43;12.05;;;7.22;;
23304;SDS011;11821;51.456;8.844;2024-01-30T06:32:09;15.63;;;9.60;;
23304;SDS011;11821;51.456;8.844;2024-01-30T06:34:36;14.57;;;8.95;;
23304;SDS011;11821;51.456;8.844;2024-01-30T06:37:04;14.70;;;9.23;;
23304;SDS011;11821;51.456;8.844;2024-01-30T06:39:30;14.00;;;9.00;;
23304;SDS011;11821;51.456;8.844;2024-01-30T06:41:57;15.07;;;8.38;;
23304;SDS011;11821;51.456;8.844;2024-01-30T06:44:23;17.10;;;10.15;;
23304;SDS011;11821;51.456;8.844;2024-01-30T06:46:50;23.20;;;10.55;;
23304;SDS011;11821;51.456;8.844;2024-01-30T06:49:16;21.88;;;11.75;;
23304;SDS011;11821;51.456;8.844;2024-01-30T06:51:43;22.13;;;12.40;;
23304;SDS011;11821;51.456;8.844;2024-01-30T06:54:09;23.80;;;12.60;;
23304;SDS011;11821;51.456;8.844;2024-01-30T06:56:36;14.90;;;8.32;;
23304;SDS011;11821;51.456;8.844;2024-01-30T06:59:03;15.77;;;8.98;;
23304;SDS011;11821;51.456;8.844;2024-01-30T07:01:29;24.13;;;13.10;;
23304;SDS011;11821;51.456;8.844;2024-01-30T07:03:56;30.33;;;12.52;;
23304;SDS011;11821;51.456;8.844;2024-01-30T07:06:23;22.15;;;11.77;;
23304;SDS011;11821;51.456;8.844;2024-01-30T07:08:49;20.88;;;11.70;;
23304;SDS011;11821;51.456;8.844;2024-01-30T07:11:19;18.00;;;9.60;;
23304;SDS011;11821;51.456;8.844;2024-01-30T07:13:52;22.08;;;11.32;;
23304;SDS011;11821;51.456;8.844;2024-01-30T07:16:19;25.13;;;11.73;;
23304;SDS011;11821;51.456;8.844;2024-01-30T07:18:45;21.48;;;11.30;;
23304;SDS011;11821;51.456;8.844;2024-01-30T07:21:12;22.17;;;11.52;;
23304;SDS011;11821;51.456;8.844;2024-01-30T07:23:38;23.77;;;11.13;;
23304;SDS011;11821;51.456;8.844;2024-01-30T07:26:06;22.45;;;11.07;;
23304;SDS011;11821;51.456;8.844;2024-01-30T07:28:34;19.20;;;11.20;;
23304;SDS011;11821;51.456;8.844;2024-01-30T07:31:00;25.88;;;11.95;;
23304;SDS011;11821;51.456;8.844;2024-01-30T07:33:27;24.33;;;12.85;;
23304;SDS011;11821;51.456;8.844;2024-01-30T07:35:54;27.50;;;13.75;;
23304;SDS011;11821;51.456;8.844;2024-01-30T07:38:20;27.73;;;13.68;;
23304;SDS011;11821;51.456;8.844;2024-01-30T07:40:47;43.72;;;18.30;;
23304;SDS011;11821;51.456;8.844;2024-01-30T07:43:13;35.72;;;16.58;;
23304;SDS011;11821;51.456;8.844;2024-01-30T07:45:40;31.85;;;14.77;;
23304;SDS011;11821;51.456;8.844;2024-01-30T07:48:06;31.92;;;15.13;;
23304;SDS011;11821;51.456;8.844;2024-01-30T07:50:33;30.50;;;15.63;;
23304;SDS011;11821;51.456;8.844;2024-01-30T07:53:00;29.10;;;15.60;;
23304;SDS011;11821;51.456;8.844;2024-01-30T07:55:26;29.65;;;16.52;;
23304;SDS011;11821;51.456;8.844;2024-01-30T07:57:54;43.90;;;18.83;;
23304;SDS011;11821;51.456;8.844;2024-01-30T08:00:21;43.08;;;19.25;;
23304;SDS011;11821;51.456;8.844;2024-01-30T08:02:54;35.97;;;17.45;;
23304;SDS011;11821;51.456;8.844;2024-01-30T08:05:21;31.23;;;14.95;;
23304;SDS011;11821;51.456;8.844;2024-01-30T08:07:48;32.90;;;16.10;;
23304;SDS011;11821;51.456;8.844;2024-01-30T08:10:15;33.03;;;12.68;;
23304;SDS011;11821;51.456;8.844;2024-01-30T08:12:43;27.88;;;14.55;;
23304;SDS011;11821;51.456;8.844;2024-01-30T08:15:11;26.10;;;13.35;;
23304;SDS011;11821;51.456;8.844;2024-01-30T08:17:38;24.55;;;11.98;;
23304;SDS011;11821;51.456;8.844;2024-01-30T08:20:05;29.27;;;13.77;;
23304;SDS011;11821;51.456;8.844;2024-01-30T08:22:33;20.95;;;12.75;;
23304;SDS011;11821;51.456;8.844;2024-01-30T08:25:00;30.67;;;13.93;;
23304;SDS011;11821;51.456;8.844;2024-01-30T08:27:27;26.75;;;14.07;;
23304;SDS011;11821;51.456;8.844;2024-01-30T08:29:53;28.77;;;14.27;;
23304;SDS011;11821;51.456;8.844;2024-01-30T08:32:20;32.83;;;16.85;;
23304;SDS011;11821;51.456;8.844;2024-01-30T08:34:46;34.63;;;16.92;;
23304;SDS011;11821;51.456;8.844;2024-01-30T08:37:13;38.90;;;17.33;;
23304;SDS011;11821;51.456;8.844;2024-01-30T08:39:42;31.25;;;15.50;;
23304;SDS011;11821;51.456;8.844;2024-01-30T08:42:09;36.70;;;17.45;;
23304;SDS011;11821;51.456;8.844;2024-01-30T08:44:35;37.33;;;17.38;;
23304;SDS011;11821;51.456;8.844;2024-01-30T08:47:02;42.00;;;17.80;;
23304;SDS011;11821;51.456;8.844;2024-01-30T08:49:28;26.30;;;14.57;;
23304;SDS011;11821;51.456;8.844;2024-01-30T08:51:55;34.45;;;15.95;;
23304;SDS011;11821;51.456;8.844;2024-01-30T08:54:23;33.15;;;15.77;;
23304;SDS011;11821;51.456;8.844;2024-01-30T08:56:49;32.88;;;16.50;;
23304;SDS011;11821;51.456;8.844;2024-01-30T08:59:17;31.65;;;13.13;;
23304;SDS011;11821;51.456;8.844;2024-01-30T09:01:44;43.45;;;16.88;;
23304;SDS011;11821;51.456;8.844;2024-01-30T09:04:12;28.98;;;14.32;;
23304;SDS011;11821;51.456;8.844;2024-01-30T09:06:38;44.03;;;17.05;;
23304;SDS011;11821;51.456;8.844;2024-01-30T09:09:05;43.40;;;16.10;;
23304;SDS011;11821;51.456;8.844;2024-01-30T09:11:32;27.63;;;14.55;;
23304;SDS011;11821;51.456;8.844;2024-01-30T09:13:58;40.70;;;18.85;;
23304;SDS011;11821;51.456;8.844;2024-01-30T09:16:25;30.73;;;16.35;;
23304;SDS011;11821;51.456;8.844;2024-01-30T09:18:51;29.33;;;14.57;;
23304;SDS011;11821;51.456;8.844;2024-01-30T09:21:18;36.65;;;15.10;;
23304;SDS011;11821;51.456;8.844;2024-01-30T09:23:44;39.95;;;16.52;;
23304;SDS011;11821;51.456;8.844;2024-01-30T09:26:11;36.97;;;14.90;;
23304;SDS011;11821;51.456;8.844;2024-01-30T09:28:38;41.28;;;16.38;;
23304;SDS011;11821;51.456;8.844;2024-01-30T09:31:09;44.08;;;17.80;;
23304;SDS011;11821;51.456;8.844;2024-01-30T09:33:35;26.73;;;12.40;;
23304;SDS011;11821;51.456;8.844;2024-01-30T09:36:02;29.33;;;13.90;;
23304;SDS011;11821;51.456;8.844;2024-01-30T09:38:29;25.05;;;13.35;;
23304;SDS011;11821;51.456;8.844;2024-01-30T09:40:55;26.92;;;14.98;;
23304;SDS011;11821;51.456;8.844;2024-01-30T09:43:22;21.20;;;13.63;;
23304;SDS011;11821;51.456;8.844;2024-01-30T09:45:52;22.38;;;13.43;;
23304;SDS011;11821;51.456;8.844;2024-01-30T09:48:19;23.67;;;14.05;;
23304;SDS011;11821;51.456;8.844;2024-01-30T09:50:46;33.65;;;13.52;;
23304;SDS011;11821;51.456;8.844;2024-01-30T09:53:12;26.17;;;13.82;;
23304;SDS011;11821;51.456;8.844;2024-01-30T09:55:39;27.55;;;13.65;;
23304;SDS011;11821;51.456;8.844;2024-01-30T09:58:09;25.48;;;14.82;;
23304;SDS011;11821;51.456;8.844;2024-01-30T10:00:36;25.00;;;14.80;;
23304;SDS011;11821;51.456;8.844;2024-01-30T10:03:03;37.05;;;17.05;;
23304;SDS011;11821;51.456;8.844;2024-01-30T10:05:30;37.20;;;19.10;;
23304;SDS011;11821;51.456;8.844;2024-01-30T10:08:00;28.10;;;13.82;;
23304;SDS011;11821;51.456;8.844;2024-01-30T10:10:28;30.35;;;15.77;;
23304;SDS011;11821;51.456;8.844;2024-01-30T10:12:54;24.77;;;15.20;;
23304;SDS011;11821;51.456;8.844;2024-01-30T10:15:21;27.55;;;15.70;;
23304;SDS011;11821;51.456;8.844;2024-01-30T10:17:47;29.13;;;15.73;;
23304;SDS011;11821;51.456;8.844;2024-01-30T10:20:14;24.02;;;13.77;;
23304;SDS011;11821;51.456;8.844;2024-01-30T10:22:41;24.45;;;13.52;;
23304;SDS011;11821;51.456;8.844;2024-01-30T10:25:11;28.88;;;15.45;;
23304;SDS011;11821;51.456;8.844;2024-01-30T10:27:39;20.27;;;13.30;;
23304;SDS011;11821;51.456;8.844;2024-01-30T10:30:06;18.40;;;12.82;;
23304;SDS011;11821;51.456;8.844;2024-01-30T10:32:33;22.48;;;14.88;;
23304;SDS011;11821;51.456;8.844;2024-01-30T10:34:59;22.95;;;14.60;;
23304;SDS011;11821;51.456;8.844;2024-01-30T10:37:26;20.77;;;14.35;;
23304;SDS011;11821;51.456;8.844;2024-01-30T10:39:55;22.75;;;15.60;;
23304;SDS011;11821;51.456;8.844;2024-01-30T10:42:23;24.27;;;15.20;;
23304;SDS011;11821;51.456;8.844;2024-01-30T10:45:09;26.90;;;15.38;;
23304;SDS011;11821;51.456;8.844;2024-01-30T10:47:39;29.00;;;15.30;;
23304;SDS011;11821;51.456;8.844;2024-01-30T10:50:06;22.88;;;14.45;;
23304;SDS011;11821;51.456;8.844;2024-01-30T10:52:33;30.85;;;16.00;;
23304;SDS011;11821;51.456;8.844;2024-01-30T10:55:00;28.23;;;16.08;;
23304;SDS011;11821;51.456;8.844;2024-01-30T10:57:27;30.30;;;17.25;;
23304;SDS011;11821;51.456;8.844;2024-01-30T10:59:55;29.77;;;16.77;;
23304;SDS011;11821;51.456;8.844;2024-01-30T11:02:23;30.63;;;17.35;;
23304;SDS011;11821;51.456;8.844;2024-01-30T11:04:49;25.60;;;16.13;;
23304;SDS011;11821;51.456;8.844;2024-01-30T11:07:23;30.00;;;16.23;;
23304;SDS011;11821;51.456;8.844;2024-01-30T11:09:54;29.02;;;15.77;;
23304;SDS011;11821;51.456;8.844;2024-01-30T11:12:29;24.27;;;15.27;;
23304;SDS011;11821;51.456;8.844;2024-01-30T11:15:02;23.33;;;14.27;;
23304;SDS011;11821;51.456;8.844;2024-01-30T11:17:40;28.02;;;15.10;;
23304;SDS011;11821;51.456;8.844;2024-01-30T11:20:10;25.08;;;15.07;;
23304;SDS011;11821;51.456;8.844;2024-01-30T11:22:37;28.35;;;15.40;;
23304;SDS011;11821;51.456;8.844;2024-01-30T11:25:04;25.00;;;15.25;;
23304;SDS011;11821;51.456;8.844;2024-01-30T11:27:30;22.45;;;14.38;;
23304;SDS011;11821;51.456;8.844;2024-01-30T11:30:03;23.40;;;13.63;;
23304;SDS011;11821;51.456;8.844;2024-01-30T11:32:30;18.70;;;12.10;;
23304;SDS011;11821;51.456;8.844;2024-01-30T11:34:57;21.08;;;13.45;;
23304;SDS011;11821;51.456;8.844;2024-01-30T11:37:24;22.17;;;13.65;;
23304;SDS011;11821;51.456;8.844;2024-01-30T11:39:54;21.40;;;13.95;;
23304;SDS011;11821;51.456;8.844;2024-01-30T11:42:23;21.20;;;13.88;;
23304;SDS011;11821;51.456;8.844;2024-01-30T11:44:52;28.35;;;15.40;;
23304;SDS011;11821;51.456;8.844;2024-01-30T11:47:19;28.13;;;15.50;;
23304;SDS011;11821;51.456;8.844;2024-01-30T11:49:45;25.92;;;16.17;;
23304;SDS011;11821;51.456;8.844;2024-01-30T11:52:12;22.98;;;16.08;;
23304;SDS011;11821;51.456;8.844;2024-01-30T11:54:39;25.33;;;16.75;;
23304;SDS011;11821;51.456;8.844;2024-01-30T11:57:06;27.45;;;16.95;;
23304;SDS011;11821;51.456;8.844;2024-01-30T11:59:33;27.50;;;18.10;;
23304;SDS011;11821;51.456;8.844;2024-01-30T12:01:59;25.38;;;16.75;;
23304;SDS011;11821;51.456;8.844;2024-01-30T12:04:29;16.83;;;13.30;;
23304;SDS011;11821;51.456;8.844;2024-01-30T12:06:56;18.95;;;13.05;;
23304;SDS011;11821;51.456;8.844;2024-01-30T12:09:22;15.50;;;11.05;;
23304;SDS011;11821;51.456;8.844;2024-01-30T12:11:49;20.52;;;14.02;;
23304;SDS011;11821;51.456;8.844;2024-01-30T12:14:16;21.55;;;13.30;;
23304;SDS011;11821;51.456;8.844;2024-01-30T12:16:43;19.60;;;12.82;;
23304;SDS011;11821;51.456;8.844;2024-01-30T12:19:09;14.88;;;11.35;;
23304;SDS011;11821;51.456;8.844;2024-01-30T12:21:37;18.13;;;12.73;;
23304;SDS011;11821;51.456;8.844;2024-01-30T12:24:04;19.83;;;11.48;;
23304;SDS011;11821;51.456;8.844;2024-01-30T12:26:32;15.98;;;11.05;;
23304;SDS011;11821;51.456;8.844;2024-01-30T12:28:59;15.32;;;10.68;;
23304;SDS011;11821;51.456;8.844;2024-01-30T12:31:31;19.40;;;11.60;;
23304;SDS011;11821;51.456;8.844;2024-01-30T12:34:01;16.37;;;11.37;;
23304;SDS011;11821;51.456;8.844;2024-01-30T12:36:28;13.18;;;10.23;;
23304;SDS011;11821;51.456;8.844;2024-01-30T12:38:56;17.88;;;10.65;;
23304;SDS011;11821;51.456;8.844;2024-01-30T12:41:23;15.45;;;10.85;;
23304;SDS011;11821;51.456;8.844;2024-01-30T12:43:54;15.90;;;10.93;;
23304;SDS011;11821;51.456;8.844;2024-01-30T12:46:20;17.50;;;11.13;;
23304;SDS011;11821;51.456;8.844;2024-01-30T12:48:47;18.33;;;12.10;;
23304;SDS011;11821;51.456;8.844;2024-01-30T12:51:13;15.48;;;11.73;;
23304;SDS011;11821;51.456;8.844;2024-01-30T12:53:40;17.38;;;11.93;;
23304;SDS011;11821;51.456;8.844;2024-01-30T12:56:07;14.88;;;10.05;;
23304;SDS011;11821;51.456;8.844;2024-01-30T12:58:33;18.27;;;11.70;;
23304;SDS011;11821;51.456;8.844;2024-01-30T13:01:00;19.70;;;11.98;;
23304;SDS011;11821;51.456;8.844;2024-01-30T13:03:26;17.98;;;11.95;;
23304;SDS011;11821;51.456;8.844;2024-01-30T13:05:53;21.25;;;11.93;;
23304;SDS011;11821;51.456;8.844;2024-01-30T13:08:19;18.73;;;11.20;;
23304;SDS011;11821;51.456;8.844;2024-01-30T13:10:46;21.70;;;11.70;;
23304;SDS011;11821;51.456;8.844;2024-01-30T13:13:12;14.55;;;11.23;;
23304;SDS011;11821;51.456;8.844;2024-01-30T13:15:39;16.55;;;11.23;;
23304;SDS011;11821;51.456;8.844;2024-01-30T13:18:05;13.35;;;10.40;;
23304;SDS011;11821;51.456;8.844;2024-01-30T13:20:32;12.52;;;10.45;;
23304;SDS011;11821;51.456;8.844;2024-01-30T13:22:59;14.75;;;10.90;;
23304;SDS011;11821;51.456;8.844;2024-01-30T13:25:25;16.13;;;11.07;;
23304;SDS011;11821;51.456;8.844;2024-01-30T13:27:52;14.80;;;10.80;;
23304;SDS011;11821;51.456;8.844;2024-01-30T13:30:18;12.48;;;10.68;;
23304;SDS011;11821;51.456;8.844;2024-01-30T13:32:45;14.05;;;10.30;;
23304;SDS011;11821;51.456;8.844;2024-01-30T13:35:11;17.45;;;10.23;;
23304;SDS011;11821;51.456;8.844;2024-01-30T13:37:38;16.42;;;10.93;;
23304;SDS011;11821;51.456;8.844;2024-01-30T13:40:05;13.32;;;10.30;;
23304;SDS011;11821;51.456;8.844;2024-01-30T13:42:32;29.55;;;16.63;;
23304;SDS011;11821;51.456;8.844;2024-01-30T13:44:59;19.30;;;11.85;;
23304;SDS011;11821;51.456;8.844;2024-01-30T13:47:25;18.35;;;12.65;;
23304;SDS011;11821;51.456;8.844;2024-01-30T13:49:52;17.48;;;12.45;;
23304;SDS011;11821;51.456;8.844;2024-01-30T13:52:18;17.10;;;12.93;;
23304;SDS011;11821;51.456;8.844;2024-01-30T13:54:45;15.30;;;11.15;;
23304;SDS011;11821;51.456;8.844;2024-01-30T13:57:11;15.48;;;12.10;;
23304;SDS011;11821;51.456;8.844;2024-01-30T13:59:38;18.67;;;12.88;;
23304;SDS011;11821;51.456;8.844;2024-01-30T14:02:05;16.48;;;11.95;;
23304;SDS011;11821;51.456;8.844;2024-01-30T14:04:33;17.77;;;11.73;;
23304;SDS011;11821;51.456;8.844;2024-01-30T14:07:03;15.02;;;11.10;;
23304;SDS011;11821;51.456;8.844;2024-01-30T14:09:29;17.27;;;11.25;;
23304;SDS011;11821;51.456;8.844;2024-01-30T14:11:57;15.55;;;11.38;;
23304;SDS011;11821;51.456;8.844;2024-01-30T14:14:24;13.45;;;10.40;;
23304;SDS011;11821;51.456;8.844;2024-01-30T14:16:50;15.88;;;11.77;;
23304;SDS011;11821;51.456;8.844;2024-01-30T14:19:17;17.77;;;10.75;;
23304;SDS011;11821;51.456;8.844;2024-01-30T14:21:43;13.98;;;10.00;;
23304;SDS011;11821;51.456;8.844;2024-01-30T14:24:10;18.20;;;10.52;;